Time;durP1;ratioP1;P1;durP2;ratioP2;P2;SDS_P1;SDS_P2;PMS_P1;PMS_P2;Temp;Humidity;BMP_temperature;BMP_pressure;BME280_temperature;BME280_humidity;BME280_pressure;Samples;Min_cycle;Max_cycle;Signal;HPM_P1;HPM_P2
2022/06/01 00:01:22;;;;;;;2.87;1.10;;;;;;;16.74;47.18;100319.81;5087567;28;20214;-73
2022/06/01 00:03:50;;;;;;;5.93;1.77;;;;;;;16.70;47.00;100328.44;5084887;28;20223;-71
2022/06/01 00:06:21;;;;;;;4.20;1.20;;;;;;;16.65;46.90;100320.97;5087155;28;20209;-73
2022/06/01 00:08:52;;;;;;;3.27;1.40;;;;;;;16.57;46.65;100323.75;5082464;28;20543;-71
2022/06/01 00:11:25;;;;;;;4.63;1.20;;;;;;;16.55;47.26;100321.25;5085259;28;20259;-72
2022/06/01 00:13:56;;;;;;;1.70;1.20;;;;;;;16.54;46.82;100318.75;5080908;28;20221;-72
2022/06/01 00:16:33;;;;;;;5.90;1.43;;;;;;;16.53;47.01;100322.47;5087349;28;20213;-72
2022/06/01 00:19:02;;;;;;;4.10;1.57;;;;;;;16.51;46.92;100321.84;5082172;28;20199;-72
2022/06/01 00:21:36;;;;;;;4.53;1.27;;;;;;;16.47;47.02;100312.53;5079687;28;20310;-72
2022/06/01 00:24:20;;;;;;;2.83;1.27;;;;;;;16.47;46.79;100321.38;5082705;28;20816;-71
2022/06/01 00:26:51;;;;;;;3.40;1.57;;;;;;;16.48;46.51;100324.88;5084594;28;20252;-72
2022/06/01 00:29:19;;;;;;;2.57;1.40;;;;;;;16.40;46.48;100312.44;5083398;28;20702;-72
2022/06/01 00:31:49;;;;;;;2.93;1.43;;;;;;;16.37;46.50;100315.50;5083997;28;20543;-73
2022/06/01 00:34:17;;;;;;;2.60;1.60;;;;;;;16.33;46.38;100313.41;5082587;28;20232;-73
2022/06/01 00:36:45;;;;;;;2.27;1.20;;;;;;;16.32;46.48;100320.59;5086508;28;20206;-73
2022/06/01 00:39:13;;;;;;;3.10;1.23;;;;;;;16.34;46.67;100317.75;5082981;28;20271;-73
2022/06/01 00:41:41;;;;;;;5.20;1.47;;;;;;;16.30;46.33;100319.13;5083654;28;20400;-73
2022/06/01 00:44:10;;;;;;;3.30;1.53;;;;;;;16.31;46.13;100323.47;5084238;28;20213;-73
2022/06/01 00:46:37;;;;;;;3.70;1.30;;;;;;;16.25;46.10;100321.56;5085219;28;20305;-73
2022/06/01 00:49:14;;;;;;;3.20;1.30;;;;;;;16.23;46.53;100312.88;5063376;28;20202;-72
2022/06/01 00:51:42;;;;;;;1.77;1.23;;;;;;;16.17;46.76;100323.31;5067985;28;20215;-72
2022/06/01 00:54:11;;;;;;;3.07;1.40;;;;;;;16.18;46.70;100319.59;5064215;28;20238;-72
2022/06/01 00:56:48;;;;;;;4.00;1.40;;;;;;;16.17;46.46;100312.63;5065041;28;20299;-73
2022/06/01 00:59:21;;;;;;;3.00;1.30;;;;;;;16.18;46.69;100314.25;5065863;28;20207;-73
2022/06/01 01:01:50;;;;;;;4.13;1.33;;;;;;;16.13;46.35;100323.88;5068794;28;20218;-72
2022/06/01 01:04:17;;;;;;;3.97;1.57;;;;;;;16.21;46.45;100314.91;5065707;28;20545;-72
2022/06/01 01:06:45;;;;;;;3.13;1.40;;;;;;;16.23;46.58;100310.19;5064025;28;20308;-72
2022/06/01 01:09:13;;;;;;;3.40;1.37;;;;;;;16.14;46.71;100304.97;5065214;28;20207;-72
2022/06/01 01:11:50;;;;;;;2.30;1.40;;;;;;;16.07;47.12;100303.22;5068664;28;20280;-72
2022/06/01 01:14:24;;;;;;;4.13;1.50;;;;;;;16.07;46.91;100296.03;5066279;28;20222;-72
2022/06/01 01:16:54;;;;;;;3.90;1.37;;;;;;;16.01;46.91;100306.63;5065238;28;20295;-72
2022/06/01 01:19:32;;;;;;;3.30;1.30;;;;;;;15.96;47.41;100298.34;5064516;28;20205;-72
2022/06/01 01:22:13;;;;;;;3.67;1.60;;;;;;;15.90;47.33;100315.16;5063839;28;20664;-72
2022/06/01 01:25:10;;;;;;;3.40;1.20;;;;;;;15.96;47.23;100301.84;5065787;28;20207;-72
2022/06/01 01:27:39;;;;;;;2.77;1.30;;;;;;;15.82;47.98;100300.06;5063142;28;20291;-72
2022/06/01 01:30:25;;;;;;;4.87;1.73;;;;;;;15.66;48.46;100302.88;5068076;28;20216;-72
2022/06/01 01:32:53;;;;;;;3.60;1.47;;;;;;;15.61;48.54;100305.31;5064479;28;20299;-72
2022/06/01 01:35:21;;;;;;;3.47;1.70;;;;;;;15.43;48.81;100303.78;5064997;28;20693;-72
2022/06/01 01:37:50;;;;;;;5.67;1.40;;;;;;;15.42;49.26;100306.63;5064590;28;20571;-71
2022/06/01 01:40:19;;;;;;;3.10;1.43;;;;;;;15.43;49.55;100303.78;5068235;28;20230;-72
2022/06/01 01:42:49;;;;;;;5.40;1.97;;;;;;;15.39;49.31;100305.16;5066076;28;20216;-72
2022/06/01 01:45:24;;;;;;;3.33;1.50;;;;;;;15.40;49.76;100304.16;5064101;28;20204;-72
2022/06/01 01:47:52;;;;;;;4.20;2.00;;;;;;;15.51;49.18;100315.41;5073107;28;20238;-71
2022/06/01 01:50:21;;;;;;;4.50;1.70;;;;;;;15.47;49.67;100308.78;5086144;28;20238;-72
2022/06/01 01:52:49;;;;;;;5.10;1.60;;;;;;;15.34;49.85;100302.22;5084646;28;20210;-71
2022/06/01 01:55:26;;;;;;;3.13;1.50;;;;;;;15.24;50.08;100312.34;5084255;28;20248;-72
2022/06/01 01:58:00;;;;;;;5.27;1.70;;;;;;;15.29;49.79;100317.97;5083843;28;20237;-72
2022/06/01 02:00:31;;;;;;;3.00;1.70;;;;;;;15.26;49.93;100318.34;5091308;28;20320;-73
2022/06/01 02:03:05;;;;;;;3.53;1.70;;;;;;;15.22;50.16;100326.88;5087833;28;20211;-74
2022/06/01 02:08:29;;;;;;;3.33;1.80;;;;;;;15.33;49.55;100315.75;5088341;28;20207;-73
2022/06/01 02:13:51;;;;;;;5.60;1.63;;;;;;;15.35;49.36;100317.25;5088589;28;20564;-73
2022/06/01 02:16:22;;;;;;;4.87;1.60;;;;;;;15.36;49.44;100324.25;5086875;28;20214;-73
2022/06/01 02:18:55;;;;;;;4.90;1.80;;;;;;;15.38;49.69;100322.22;5084961;28;20625;-71
2022/06/01 02:21:26;;;;;;;3.70;1.87;;;;;;;15.41;49.90;100315.66;5085434;28;20670;-73
2022/06/01 02:23:55;;;;;;;5.83;1.50;;;;;;;15.41;50.07;100321.84;5088929;28;20564;-73
2022/06/01 02:26:25;;;;;;;5.50;1.37;;;;;;;15.40;49.69;100314.84;5088956;28;20226;-72
2022/06/01 02:29:02;;;;;;;2.83;1.53;;;;;;;15.37;49.86;100315.22;5088615;28;20903;-72
2022/06/01 02:31:31;;;;;;;4.53;1.97;;;;;;;15.41;49.65;100316.50;5090888;28;20206;-72
2022/06/01 02:33:59;;;;;;;3.63;1.67;;;;;;;15.45;49.65;100325.00;5085883;28;20270;-72
2022/06/01 02:36:28;;;;;;;7.17;1.60;;;;;;;15.47;48.95;100316.78;5088394;28;20278;-72
2022/06/01 02:38:59;;;;;;;3.23;1.57;;;;;;;15.47;48.94;100327.47;5087128;28;20238;-73
2022/06/01 02:44:16;;;;;;;3.87;1.80;;;;;;;15.48;48.95;100331.81;5085208;28;20199;-73
2022/06/01 02:46:44;;;;;;;8.00;2.13;;;;;;;15.49;48.54;100328.09;5089343;28;20242;-73
2022/06/01 02:49:12;;;;;;;3.60;1.50;;;;;;;15.55;48.39;100330.09;5087701;28;20572;-73
2022/06/01 02:51:40;;;;;;;2.97;1.60;;;;;;;15.45;49.18;100322.31;5086267;28;20215;-73
2022/06/01 02:54:08;;;;;;;3.00;1.50;;;;;;;15.41;49.19;100334.38;5089906;28;20822;-73
2022/06/01 02:56:37;;;;;;;4.07;1.87;;;;;;;15.47;48.86;100327.47;5086141;28;20211;-72
2022/06/01 02:59:05;;;;;;;5.00;2.00;;;;;;;15.56;48.88;100329.91;5086479;28;20209;-73
2022/06/01 03:01:43;;;;;;;4.37;1.77;;;;;;;15.63;48.91;100336.19;5088705;28;20203;-73
2022/06/01 03:04:11;;;;;;;2.57;1.40;;;;;;;15.58;48.86;100322.53;5083297;28;20581;-72
2022/06/01 03:06:39;;;;;;;3.20;1.50;;;;;;;15.63;48.95;100324.66;5087461;28;20209;-72
2022/06/01 03:09:29;;;;;;;10.87;2.73;;;;;;;15.63;49.19;100338.84;5089042;28;20574;-72
2022/06/01 03:14:40;;;;;;;8.73;2.07;;;;;;;15.61;49.58;100342.72;5086320;28;20248;-72
2022/06/01 03:17:08;;;;;;;4.47;1.70;;;;;;;15.57;49.66;100333.44;5082850;28;20290;-72
2022/06/01 03:19:35;;;;;;;4.37;2.20;;;;;;;15.55;50.06;100327.44;5088173;28;20560;-72
2022/06/01 03:22:04;;;;;;;5.57;1.90;;;;;;;15.47;50.15;100319.47;5088343;28;20241;-72
2022/06/01 03:24:32;;;;;;;5.80;1.63;;;;;;;15.38;50.70;100311.53;5087132;28;20203;-72
2022/06/01 03:27:02;;;;;;;3.93;1.80;;;;;;;15.40;50.53;100320.19;5087829;28;20287;-72
2022/06/01 03:29:30;;;;;;;4.87;1.80;;;;;;;15.42;50.86;100322.69;5085687;28;20322;-72
2022/06/01 03:31:58;;;;;;;3.27;1.80;;;;;;;15.46;50.56;100328.50;5085187;28;20238;-72
2022/06/01 03:34:30;;;;;;;4.83;1.80;;;;;;;15.56;50.54;100329.91;5087386;28;20293;-72
2022/06/01 03:36:58;;;;;;;2.97;1.47;;;;;;;15.59;50.51;100326.88;5087733;28;20707;-72
2022/06/01 03:39:26;;;;;;;5.97;2.10;;;;;;;15.62;50.70;100331.03;5087463;28;20298;-71
2022/06/01 03:41:54;;;;;;;4.30;2.23;;;;;;;15.66;50.49;100325.09;5084642;28;20257;-71
2022/06/01 03:47:13;;;;;;;3.27;2.07;;;;;;;15.62;50.37;100333.69;5082095;28;20646;-72
2022/06/01 03:49:43;;;;;;;5.33;2.87;;;;;;;15.53;50.73;100332.91;5068399;28;20666;-72
2022/06/01 03:52:11;;;;;;;4.43;1.87;;;;;;;15.51;50.70;100337.59;5065907;28;20209;-72
2022/06/01 03:54:40;;;;;;;3.83;1.93;;;;;;;15.49;50.66;100339.63;5066871;28;20216;-72
2022/06/01 03:57:08;;;;;;;7.07;2.00;;;;;;;15.51;50.98;100339.44;5063329;28;20215;-71
2022/06/01 03:59:37;;;;;;;5.57;1.90;;;;;;;15.55;50.87;100348.81;5068063;28;20272;-71
2022/06/01 04:02:07;;;;;;;6.77;2.00;;;;;;;15.55;50.78;100338.13;5063767;28;20657;-72
2022/06/01 04:04:35;;;;;;;6.47;2.37;;;;;;;15.46;51.09;100355.22;5064079;28;20247;-72
2022/06/01 04:07:03;;;;;;;4.67;1.90;;;;;;;15.40;51.60;100356.75;5065276;28;20302;-72
2022/06/01 04:09:37;;;;;;;4.13;2.03;;;;;;;15.34;51.62;100358.31;5062696;28;20271;-72
2022/06/01 04:12:06;;;;;;;4.87;2.10;;;;;;;15.34;51.55;100354.81;5065588;28;20289;-72
2022/06/01 04:14:34;;;;;;;4.97;1.97;;;;;;;15.35;51.66;100359.16;5066330;28;20211;-72
2022/06/01 04:17:03;;;;;;;7.23;1.90;;;;;;;15.26;51.79;100360.25;5068302;28;20311;-72
2022/06/01 04:19:31;;;;;;;3.40;1.90;;;;;;;15.25;52.08;100356.72;5069619;28;20211;-72
2022/06/01 04:22:00;;;;;;;5.53;2.27;;;;;;;15.31;51.22;100358.66;5065389;28;20283;-72
2022/06/01 04:24:30;;;;;;;6.17;2.73;;;;;;;15.40;51.29;100360.25;5067213;28;20296;-72
2022/06/01 04:26:58;;;;;;;3.70;2.10;;;;;;;15.44;51.11;100364.25;5065834;28;20708;-72
2022/06/01 04:29:26;;;;;;;3.73;2.30;;;;;;;15.46;51.21;100368.56;5068066;28;21578;-72
2022/06/01 04:32:01;;;;;;;5.70;1.90;;;;;;;15.46;51.42;100363.22;5070669;28;20215;-72
2022/06/01 04:34:31;;;;;;;4.63;2.20;;;;;;;15.49;51.58;100363.69;5068132;28;20496;-72
2022/06/01 04:36:58;;;;;;;4.33;2.17;;;;;;;15.55;51.59;100367.50;5061133;28;20227;-72
2022/06/01 04:39:26;;;;;;;4.63;1.97;;;;;;;15.55;51.72;100371.03;5067519;28;20222;-72
2022/06/01 04:41:54;;;;;;;4.83;2.10;;;;;;;15.60;51.04;100367.78;5069095;28;20682;-72
2022/06/01 04:44:22;;;;;;;5.80;2.30;;;;;;;15.60;50.80;100360.59;5063853;28;20200;-71
2022/06/01 04:46:50;;;;;;;5.47;2.20;;;;;;;15.69;51.02;100356.00;5066150;28;20226;-71
2022/06/01 04:49:17;;;;;;;4.57;2.20;;;;;;;15.70;50.87;100354.97;5085623;28;20698;-71
2022/06/01 04:51:47;;;;;;;8.13;2.63;;;;;;;15.71;51.19;100362.00;5084759;28;20206;-71
2022/06/01 04:54:15;;;;;;;7.57;2.03;;;;;;;15.73;50.76;100371.50;5086357;28;20214;-72
2022/06/01 04:56:43;;;;;;;6.30;1.70;;;;;;;15.76;50.07;100365.75;5086725;28;20726;-72
2022/06/01 04:59:10;;;;;;;4.03;1.70;;;;;;;15.80;50.04;100363.56;5081783;28;20297;-72
2022/06/01 05:01:38;;;;;;;3.77;1.90;;;;;;;15.79;49.71;100362.72;5088449;28;20655;-74
2022/06/01 05:04:06;;;;;;;4.43;1.70;;;;;;;15.84;49.44;100372.84;5085403;28;20229;-73
2022/06/01 05:06:34;;;;;;;5.40;1.50;;;;;;;15.85;49.10;100371.84;5085371;28;22325;-73
2022/06/01 05:09:04;;;;;;;2.97;1.27;;;;;;;15.89;48.76;100375.00;5086310;28;20241;-73
2022/06/01 05:11:34;;;;;;;2.93;1.43;;;;;;;15.95;49.03;100377.75;5086170;28;20206;-73
2022/06/01 05:14:02;;;;;;;3.50;1.70;;;;;;;15.90;48.94;100379.34;5082586;28;20276;-73
2022/06/01 05:16:31;;;;;;;3.40;1.40;;;;;;;15.88;49.41;100371.50;5083377;28;20731;-73
2022/06/01 05:19:00;;;;;;;2.97;1.60;;;;;;;15.94;49.39;100384.09;5087340;28;20215;-72
2022/06/01 05:21:29;;;;;;;6.63;1.50;;;;;;;15.96;49.06;100390.13;5075370;28;20252;-72
2022/06/01 05:23:56;;;;;;;4.17;1.20;;;;;;;15.94;48.43;100380.59;5086746;28;20247;-73
2022/06/01 05:26:26;;;;;;;4.40;1.63;;;;;;;15.98;48.60;100381.91;5083948;28;20219;-73
2022/06/01 05:28:54;;;;;;;7.43;1.97;;;;;;;16.04;49.08;100382.00;5087667;28;20645;-72
2022/06/01 05:31:22;;;;;;;5.30;1.73;;;;;;;16.06;49.33;100385.31;5088162;28;20302;-72
2022/06/01 05:33:51;;;;;;;6.43;2.00;;;;;;;16.13;49.03;100385.41;5089516;28;20722;-72
2022/06/01 05:36:19;;;;;;;4.30;1.80;;;;;;;16.27;48.41;100378.38;5092782;28;20748;-73
2022/06/01 05:38:47;;;;;;;3.30;1.70;;;;;;;16.27;48.31;100381.06;5092048;28;20286;-73
2022/06/01 05:41:16;;;;;;;3.97;1.63;;;;;;;16.23;48.40;100385.09;5092850;28;20764;-73
2022/06/01 05:43:47;;;;;;;5.67;1.80;;;;;;;16.23;48.83;100385.09;5088671;28;20307;-73
2022/06/01 05:46:15;;;;;;;7.90;1.77;;;;;;;16.32;49.01;100384.00;5090854;28;20207;-73
2022/06/01 05:48:43;;;;;;;6.63;1.93;;;;;;;16.36;48.78;100379.94;5085497;28;20714;-73
2022/06/01 05:51:10;;;;;;;4.97;1.63;;;;;;;16.41;48.75;100377.50;5092768;28;20226;-73
2022/06/01 05:53:38;;;;;;;5.40;1.53;;;;;;;16.54;48.25;100380.31;5088823;28;20207;-73
2022/06/01 05:56:06;;;;;;;4.13;1.50;;;;;;;16.58;48.19;100376.28;5089403;28;20238;-73
2022/06/01 05:58:37;;;;;;;5.63;1.70;;;;;;;16.65;47.80;100371.00;5089650;28;20222;-73
2022/06/01 06:01:08;;;;;;;5.33;1.57;;;;;;;16.78;47.28;100380.03;5090272;28;20234;-72
2022/06/01 06:03:36;;;;;;;10.50;1.60;;;;;;;16.77;47.30;100378.38;5088511;28;20215;-72
2022/06/01 06:06:14;;;;;;;3.30;1.77;;;;;;;16.82;47.12;100380.47;5085116;28;20216;-72
2022/06/01 06:08:47;;;;;;;7.67;1.70;;;;;;;16.85;47.33;100391.63;5088195;28;20203;-72
2022/06/01 06:11:23;;;;;;;2.97;1.57;;;;;;;16.95;47.79;100387.81;5090301;28;20198;-72
2022/06/01 06:13:53;;;;;;;4.53;1.73;;;;;;;17.01;47.68;100393.22;5083248;28;20253;-74
2022/06/01 06:16:22;;;;;;;5.77;1.97;;;;;;;17.07;47.07;100399.66;5086652;28;20678;-74
2022/06/01 06:18:51;;;;;;;6.47;2.30;;;;;;;17.14;46.74;100390.69;5089022;28;20210;-73
2022/06/01 06:21:19;;;;;;;7.13;2.90;;;;;;;17.12;47.05;100392.72;5087754;28;20250;-74
2022/06/01 06:23:47;;;;;;;9.53;2.93;;;;;;;17.16;47.23;100395.81;5085474;28;20288;-73
2022/06/01 06:26:14;;;;;;;7.70;2.50;;;;;;;17.15;47.46;100407.59;5085834;28;20496;-75
2022/06/01 06:28:43;;;;;;;4.13;2.20;;;;;;;17.20;47.62;100405.16;5086648;28;20378;-74
2022/06/01 06:31:13;;;;;;;7.13;2.80;;;;;;;17.25;47.23;100402.69;5088207;28;20221;-69
2022/06/01 06:33:42;;;;;;;8.10;2.50;;;;;;;17.35;47.75;100403.22;5090049;28;20217;-70
2022/06/01 06:36:11;;;;;;;4.03;2.10;;;;;;;17.45;47.54;100403.72;5089917;28;20230;-69
2022/06/01 06:38:40;;;;;;;7.77;2.13;;;;;;;17.47;47.31;100406.19;5089379;28;20293;-69
2022/06/01 06:41:10;;;;;;;3.60;2.20;;;;;;;17.51;47.56;100407.44;5087854;28;20206;-70
2022/06/01 06:43:38;;;;;;;8.20;2.60;;;;;;;17.59;47.49;100408.13;5086888;28;20209;-68
2022/06/01 06:46:08;;;;;;;7.70;2.47;;;;;;;17.59;47.64;100408.13;5087445;28;20238;-69
2022/06/01 06:48:37;;;;;;;4.53;2.60;;;;;;;17.68;47.32;100414.22;5088803;28;20231;-69
2022/06/01 06:51:07;;;;;;;4.27;2.40;;;;;;;17.76;46.83;100410.56;5082632;28;20206;-69
2022/06/01 06:53:35;;;;;;;5.50;2.37;;;;;;;17.81;46.67;100410.81;5085935;28;20238;-70
2022/06/01 06:56:03;;;;;;;8.00;2.73;;;;;;;17.82;47.12;100412.47;5088624;28;20728;-69
2022/06/01 06:58:32;;;;;;;6.67;2.80;;;;;;;17.83;47.25;100416.81;5084965;28;20218;-69
2022/06/01 07:01:00;;;;;;;5.67;2.57;;;;;;;17.83;47.02;100416.81;5085892;28;20240;-69
2022/06/01 07:03:30;;;;;;;8.80;2.60;;;;;;;17.89;46.39;100413.31;5086261;28;20302;-71
2022/06/01 07:06:12;;;;;;;4.27;2.30;;;;;;;17.92;46.62;100423.69;5082772;28;20203;-70
2022/06/01 07:08:45;;;;;;;5.60;1.87;;;;;;;17.94;47.01;100419.75;5083952;28;20205;-70
2022/06/01 07:11:15;;;;;;;6.03;2.23;;;;;;;17.97;46.12;100421.22;5087282;28;20251;-72
2022/06/01 07:13:43;;;;;;;3.60;2.00;;;;;;;18.01;46.18;100420.66;5090038;28;20256;-74
2022/06/01 07:16:14;;;;;;;4.90;2.13;;;;;;;17.96;46.13;100424.94;5091645;28;20202;-68
2022/06/01 07:18:44;;;;;;;4.17;2.37;;;;;;;18.02;46.83;100429.53;5085645;28;20634;-69
2022/06/01 07:21:13;;;;;;;5.47;2.00;;;;;;;17.99;46.49;100416.50;5091634;28;20238;-67
2022/06/01 07:23:43;;;;;;;5.60;2.43;;;;;;;18.02;47.47;100421.47;5082564;28;20209;-68
2022/06/01 07:26:18;;;;;;;5.03;2.50;;;;;;;18.08;46.78;100415.31;5090963;28;20264;-68
2022/06/01 07:28:46;;;;;;;7.70;2.10;;;;;;;18.19;46.86;100417.44;5091207;28;20233;-67
2022/06/01 07:31:14;;;;;;;4.57;1.60;;;;;;;18.27;46.18;100409.22;5091381;28;20253;-67
2022/06/01 07:33:43;;;;;;;3.50;1.80;;;;;;;18.32;46.49;100417.47;5090862;28;20234;-67
2022/06/01 07:36:13;;;;;;;3.53;2.23;;;;;;;18.46;46.73;100409.50;5091004;28;20219;-68
2022/06/01 07:44:19;;;;;;;3.87;1.43;;;;;;;18.48;46.68;100404.72;5086883;28;20209;-67
2022/06/01 07:46:48;;;;;;;3.73;1.40;;;;;;;18.57;45.85;100408.94;5083875;28;20230;-67
2022/06/01 07:49:16;;;;;;;5.80;1.47;;;;;;;18.69;45.74;100412.69;5070929;28;20305;-68
2022/06/01 07:52:07;;;;;;;2.43;1.40;;;;;;;18.74;44.74;100405.69;5067055;28;20690;-68
2022/06/01 07:54:37;;;;;;;4.63;1.40;;;;;;;18.76;45.21;100410.84;5066007;28;20207;-67
2022/06/01 07:57:06;;;;;;;3.60;1.60;;;;;;;18.82;44.65;100402.00;5072632;28;20318;-68
2022/06/01 07:59:37;;;;;;;3.80;1.30;;;;;;;18.88;44.36;100405.72;5068468;28;20640;-69
2022/06/01 08:02:09;;;;;;;3.17;1.47;;;;;;;18.89;44.75;100407.38;5071325;28;20207;-67
2022/06/01 08:04:39;;;;;;;2.70;1.60;;;;;;;18.97;44.68;100413.41;5068002;28;20614;-68
2022/06/01 08:07:09;;;;;;;3.57;1.63;;;;;;;19.06;43.93;100404.13;5067477;28;20199;-70
2022/06/01 08:09:38;;;;;;;3.73;1.50;;;;;;;19.13;44.10;100410.31;5064353;28;20789;-67
2022/06/01 08:14:53;;;;;;;2.67;1.20;;;;;;;19.30;44.58;100415.28;5069770;28;20660;-68
2022/06/01 08:17:23;;;;;;;5.87;1.70;;;;;;;19.45;43.90;100408.66;5070219;28;20231;-70
2022/06/01 08:19:51;;;;;;;4.77;1.60;;;;;;;19.61;43.00;100412.84;5075324;28;20231;-69
2022/06/01 08:22:19;;;;;;;4.17;1.30;;;;;;;19.66;42.67;100404.97;5069092;28;20271;-71
2022/06/01 08:24:48;;;;;;;8.70;1.30;;;;;;;19.72;42.90;100409.50;5072188;28;20244;-74
2022/06/01 08:27:16;;;;;;;4.47;1.23;;;;;;;19.80;42.22;100405.75;5070266;28;20234;-74
2022/06/01 08:29:44;;;;;;;6.53;1.47;;;;;;;19.85;42.16;100409.50;5071584;28;20266;-74
2022/06/01 08:32:12;;;;;;;3.80;1.57;;;;;;;19.90;42.36;100408.84;5062822;28;20247;-71
2022/06/01 08:34:40;;;;;;;5.00;1.50;;;;;;;19.95;42.39;100410.94;5070076;28;20703;-73
2022/06/01 08:37:10;;;;;;;3.40;1.37;;;;;;;20.09;41.90;100415.22;5069687;28;20237;-71
2022/06/01 08:39:38;;;;;;;6.00;1.13;;;;;;;20.15;42.17;100412.50;5068423;28;20218;-72
2022/06/01 08:42:12;;;;;;;6.10;1.37;;;;;;;20.20;41.62;100415.41;5066990;28;20318;-72
2022/06/01 08:44:43;;;;;;;4.03;1.33;;;;;;;20.31;41.59;100411.25;5074199;28;20256;-73
2022/06/01 08:47:20;;;;;;;2.37;1.00;;;;;;;20.40;41.44;100414.56;5070227;28;20297;-73
2022/06/01 08:49:48;;;;;;;3.30;1.00;;;;;;;20.50;41.08;100412.19;5086728;28;20293;-72
2022/06/01 08:52:16;;;;;;;6.43;1.00;;;;;;;20.49;40.01;100411.38;5087880;28;20206;-71
2022/06/01 08:54:44;;;;;;;2.10;0.80;;;;;;;20.50;38.88;100409.50;5093532;28;20288;-74
2022/06/01 08:57:21;;;;;;;2.10;0.80;;;;;;;20.59;36.96;100411.75;5088144;28;20199;-74
2022/06/01 08:59:56;;;;;;;1.60;0.70;;;;;;;20.71;36.94;100408.38;5091025;28;20214;-74
2022/06/01 09:02:38;;;;;;;2.70;1.23;;;;;;;20.74;36.75;100424.97;5087691;28;20216;-72
2022/06/01 09:05:12;;;;;;;3.13;0.60;;;;;;;20.85;36.26;100409.94;5091899;28;20289;-75
2022/06/01 09:07:47;;;;;;;4.63;0.80;;;;;;;20.91;36.36;100411.81;5092322;28;20206;-74
2022/06/01 09:10:37;;;;;;;2.57;0.70;;;;;;;20.94;35.72;100411.34;5087040;28;20214;-74
2022/06/01 09:13:10;;;;;;;3.13;0.70;;;;;;;20.99;36.46;100411.53;5094629;28;20305;-73
2022/06/01 09:15:45;;;;;;;1.53;0.60;;;;;;;21.03;36.79;100412.75;5095352;28;20702;-76
2022/06/01 09:18:14;;;;;;;5.17;1.53;;;;;;;21.07;35.88;100403.19;5094929;28;20237;-74
2022/06/01 09:23:27;;;;;;;7.77;1.00;;;;;;;21.18;36.78;100413.31;5094559;28;20305;-73
2022/06/01 09:25:57;;;;;;;1.73;1.00;;;;;;;21.28;35.34;100415.53;5094914;28;20297;-72
2022/06/01 09:28:27;;;;;;;4.97;0.80;;;;;;;21.32;35.50;100405.94;5094319;28;20627;-72
2022/06/01 09:30:59;;;;;;;2.70;0.70;;;;;;;21.42;35.33;100413.53;5090210;28;20234;-72
2022/06/01 09:33:31;;;;;;;1.20;0.57;;;;;;;21.49;36.78;100415.13;5083202;28;20655;-73
2022/06/01 09:36:20;;;;;;;3.67;0.87;;;;;;;21.52;36.98;100416.56;5092911;28;20244;-73
2022/06/01 09:38:51;;;;;;;1.40;0.70;;;;;;;21.58;37.16;100412.97;5094580;28;20635;-73
2022/06/01 09:41:25;;;;;;;1.50;0.70;;;;;;;21.50;35.18;100413.25;5094952;28;20241;-74
2022/06/01 09:43:58;;;;;;;1.57;0.90;;;;;;;21.54;35.86;100411.78;5092920;28;20558;-74
2022/06/01 09:46:33;;;;;;;1.83;0.80;;;;;;;21.58;36.12;100415.66;5094472;28;20744;-73
2022/06/01 09:49:09;;;;;;;4.60;0.97;;;;;;;21.59;35.62;100414.63;5089765;28;20698;-74
2022/06/01 09:51:40;;;;;;;2.00;0.90;;;;;;;21.38;37.13;100415.81;5088812;28;20566;-72
2022/06/01 09:54:11;;;;;;;3.10;1.00;;;;;;;21.37;37.68;100414.22;5090685;28;20207;-72
2022/06/01 09:56:48;;;;;;;4.33;0.90;;;;;;;21.34;36.63;100412.75;5092217;28;20258;-74
2022/06/01 10:08:17;;;;;;;9.67;1.30;;;;;;;21.45;37.77;100405.84;5003895;28;20213;-75
2022/06/01 10:10:58;;;;;;;5.00;1.23;;;;;;;21.88;35.77;100396.91;5024702;28;20433;-73
2022/06/01 10:13:33;;;;;;;3.23;1.00;;;;;;;21.92;37.68;100407.03;5086567;28;20546;-74
2022/06/01 10:16:12;;;;;;;2.90;1.00;;;;;;;21.90;35.49;100400.22;5091758;28;20708;-74
2022/06/01 10:18:44;;;;;;;6.67;1.43;;;;;;;21.95;35.91;100398.50;5093400;28;20298;-74
2022/06/01 10:21:19;;;;;;;2.70;1.10;;;;;;;22.08;36.35;100406.47;5086381;28;20294;-74
2022/06/01 10:23:54;;;;;;;5.17;1.30;;;;;;;22.21;35.81;100397.41;5090225;28;20248;-74
2022/06/01 10:26:26;;;;;;;4.33;1.13;;;;;;;22.30;35.94;100403.31;5092442;28;20212;-74
2022/06/01 10:29:00;;;;;;;5.00;1.50;;;;;;;22.41;36.09;100392.59;5090033;28;20301;-69
2022/06/01 10:31:33;;;;;;;6.93;2.13;;;;;;;22.53;35.70;100384.53;5091867;28;20198;-68
2022/06/01 10:34:09;;;;;;;5.60;3.20;;;;;;;22.63;36.55;100384.81;5092237;28;20844;-70
2022/06/01 10:36:44;;;;;;;12.18;4.47;;;;;;;22.70;35.78;100374.72;5092929;28;20287;-67
2022/06/01 10:39:20;;;;;;;12.80;6.35;;;;;;;22.74;35.83;100383.22;5090973;28;20313;-69
2022/06/01 10:41:58;;;;;;;5.85;1.88;;;;;;;22.82;34.83;100372.91;5094426;28;20213;-74
2022/06/01 10:44:34;;;;;;;12.00;5.30;;;;;;;22.87;35.62;100374.91;5090507;28;20263;-73
2022/06/01 10:47:09;;;;;;;9.02;3.15;;;;;;;22.84;35.00;100381.63;5088775;28;20202;-67
2022/06/01 10:49:46;;;;;;;5.75;2.55;;;;;;;23.03;34.20;100373.47;5073711;28;20209;-70
2022/06/01 10:52:24;;;;;;;3.92;1.58;;;;;;;23.06;34.52;100359.44;5070769;28;20195;-70
2022/06/01 10:55:06;;;;;;;5.43;2.47;;;;;;;23.05;34.77;100368.63;5076820;28;20576;-69
2022/06/01 10:57:38;;;;;;;11.73;3.13;;;;;;;23.10;34.85;100366.06;5071053;28;20249;-69
2022/06/01 11:00:09;;;;;;;6.57;1.92;;;;;;;23.27;34.40;100356.19;5072493;28;20220;-69
2022/06/01 11:03:08;;;;;;;6.32;2.25;;;;;;;23.40;33.25;100361.38;5069725;28;20394;-71
2022/06/01 11:05:44;;;;;;;7.80;2.00;;;;;;;23.37;33.78;100351.03;5057522;28;20204;-68
2022/06/01 11:08:26;;;;;;;5.82;1.33;;;;;;;23.39;33.68;100353.50;5070932;28;20290;-70
2022/06/01 11:11:04;;;;;;;4.13;1.40;;;;;;;23.45;33.04;100347.16;5072811;28;20627;-71
2022/06/01 11:13:46;;;;;;;5.22;2.45;;;;;;;23.52;32.63;100343.31;5065488;28;20195;-70
2022/06/01 11:16:25;;;;;;;5.63;1.60;;;;;;;23.67;32.49;100344.69;5069563;28;20227;-69
2022/06/01 11:19:08;;;;;;;5.03;1.75;;;;;;;23.68;32.52;100346.34;5064632;28;20278;-69
2022/06/01 11:21:48;;;;;;;6.97;1.35;;;;;;;23.63;32.48;100342.47;5068652;28;20208;-69
2022/06/01 11:24:32;;;;;;;4.55;1.60;;;;;;;23.74;32.52;100353.53;5068723;28;20636;-69
2022/06/01 11:27:23;;;;;;;5.35;1.30;;;;;;;23.81;32.55;100340.69;5070057;28;20231;-69
2022/06/01 11:30:02;;;;;;;3.47;1.23;;;;;;;24.06;32.62;100334.97;5068970;28;20303;-69
2022/06/01 11:32:38;;;;;;;3.58;1.30;;;;;;;24.18;32.53;100344.75;5070009;28;20688;-69
2022/06/01 11:35:17;;;;;;;4.68;1.33;;;;;;;24.30;31.95;100332.00;5056728;28;20215;-74
2022/06/01 11:37:53;;;;;;;7.90;1.27;;;;;;;24.29;31.43;100341.19;5072286;28;20286;-69
2022/06/01 11:40:31;;;;;;;2.97;0.80;;;;;;;24.32;31.79;100340.69;5071339;28;20265;-69
2022/06/01 11:43:04;;;;;;;3.45;1.10;;;;;;;24.36;31.88;100339.13;5071955;28;20202;-70
2022/06/01 11:45:37;;;;;;;2.50;1.00;;;;;;;24.31;30.93;100344.47;5071572;28;20199;-69
2022/06/01 11:48:09;;;;;;;4.85;1.08;;;;;;;24.37;31.33;100346.22;5082558;28;20284;-71
2022/06/01 11:50:57;;;;;;;8.30;1.10;;;;;;;24.28;31.25;100341.41;5083739;28;20209;-71
2022/06/01 11:53:33;;;;;;;6.00;0.95;;;;;;;24.42;31.66;100340.09;5082058;28;20248;-73
2022/06/01 11:56:11;;;;;;;2.78;0.90;;;;;;;24.55;31.81;100347.09;5088825;28;22115;-73
2022/06/01 11:58:45;;;;;;;4.20;0.90;;;;;;;24.45;30.95;100342.28;5090297;28;20293;-78
2022/06/01 12:01:15;;;;;;;3.65;1.00;;;;;;;24.38;31.79;100342.44;5092785;28;20230;-74
2022/06/01 12:03:56;;;;;;;3.70;0.75;;;;;;;24.28;30.97;100336.81;5087125;28;20203;-73
2022/06/01 12:06:45;;;;;;;9.75;0.98;;;;;;;24.36;31.33;100332.94;5089269;28;20214;-71
2022/06/01 12:09:22;;;;;;;2.30;0.80;;;;;;;24.33;31.48;100345.06;5087174;28;20203;-73
2022/06/01 12:11:52;;;;;;;2.83;1.10;;;;;;;24.31;32.08;100328.22;5083190;28;20644;-70
2022/06/01 12:14:40;;;;;;;2.80;1.00;;;;;;;24.13;31.30;100331.06;5086046;28;20206;-70
2022/06/01 12:17:29;;;;;;;1.88;0.98;;;;;;;24.14;32.81;100330.00;5089953;28;20194;-73
2022/06/01 12:20:20;;;;;;;2.17;0.63;;;;;;;24.12;32.25;100331.31;5085724;28;20234;-70